createdAt,value
2018-03-29T00:01:57.043Z,15.57
2018-03-29T00:04:25.385Z,14.20
2018-03-29T00:06:52.981Z,14.40
2018-03-29T00:09:20.571Z,15.70
2018-03-29T00:11:48.130Z,14.93
2018-03-29T00:14:15.684Z,14.33
2018-03-29T00:16:43.273Z,14.07
2018-03-29T00:19:10.874Z,15.57
2018-03-29T00:21:38.414Z,15.17
2018-03-29T00:24:06.007Z,15.43
2018-03-29T00:26:33.646Z,13.67
2018-03-29T00:29:01.743Z,14.40
2018-03-29T00:31:29.402Z,15.33
2018-03-29T00:33:56.967Z,14.60
2018-03-29T00:36:24.840Z,16.00
2018-03-29T00:38:55.230Z,14.30
2018-03-29T00:41:22.778Z,15.97
2018-03-29T00:43:50.385Z,14.87
2018-03-29T00:46:17.950Z,14.97
2018-03-29T00:48:46.094Z,15.43
2018-03-29T00:51:14.803Z,15.93
2018-03-29T00:53:45.230Z,16.60
2018-03-29T00:56:14.167Z,14.83
2018-03-29T00:58:42.483Z,15.17
2018-03-29T01:01:10.276Z,14.00
2018-03-29T01:03:37.830Z,17.17
2018-03-29T01:06:05.401Z,16.17
2018-03-29T01:08:33.758Z,16.53
2018-03-29T01:11:01.313Z,16.10
2018-03-29T01:13:28.878Z,16.20
2018-03-29T01:15:57.547Z,15.47
2018-03-29T01:18:25.102Z,16.43
2018-03-29T01:20:52.698Z,16.67
2018-03-29T01:23:20.241Z,17.87
2018-03-29T01:25:47.796Z,17.00
2018-03-29T01:28:15.368Z,18.00
2018-03-29T01:30:42.946Z,18.60
2018-03-29T01:33:10.506Z,18.67
2018-03-29T01:35:38.079Z,17.10
2018-03-29T01:38:05.638Z,22.00
2018-03-29T01:40:34.170Z,19.17
2018-03-29T01:43:01.779Z,20.70
2018-03-29T01:45:30.848Z,19.83
2018-03-29T01:47:58.423Z,25.63
2018-03-29T01:50:26.001Z,23.90
2018-03-29T01:52:53.657Z,23.60
2018-03-29T01:55:21.206Z,25.57
2018-03-29T01:57:49.212Z,25.80
2018-03-29T02:00:16.933Z,27.50
2018-03-29T02:02:44.524Z,29.53
2018-03-29T02:05:12.107Z,29.33
2018-03-29T02:07:41.968Z,28.07
2018-03-29T02:10:10.275Z,35.57
2018-03-29T02:12:37.861Z,28.37
2018-03-29T02:15:06.851Z,33.63
2018-03-29T02:17:34.395Z,31.27
2018-03-29T02:20:01.972Z,32.63
2018-03-29T02:22:30.311Z,34.10
2018-03-29T02:24:58.294Z,32.83
2018-03-29T02:27:25.856Z,34.07
2018-03-29T02:29:54.355Z,33.67
2018-03-29T02:32:21.926Z,36.67
2018-03-29T02:34:49.507Z,34.63
2018-03-29T02:37:17.877Z,38.23
2018-03-29T02:39:46.226Z,36.63
2018-03-29T02:42:13.896Z,37.93
2018-03-29T02:44:41.530Z,35.10
2018-03-29T02:47:09.084Z,36.87
2018-03-29T02:49:36.957Z,35.60
2018-03-29T02:52:04.532Z,39.00
2018-03-29T02:54:35.183Z,41.43
2018-03-29T02:57:03.120Z,40.20
2018-03-29T02:59:31.083Z,36.10
2018-03-29T03:01:58.687Z,40.47
2018-03-29T03:04:27.586Z,38.00
2018-03-29T03:06:55.415Z,40.13
2018-03-29T03:09:23.280Z,44.17
2018-03-29T03:11:52.811Z,39.30
2018-03-29T03:14:21.271Z,42.50
2018-03-29T03:16:49.159Z,39.23
2018-03-29T03:19:16.755Z,42.30
2018-03-29T03:21:45.068Z,41.93
2018-03-29T03:24:13.250Z,40.03
2018-03-29T03:26:40.922Z,42.90
2018-03-29T03:29:08.511Z,40.83
2018-03-29T03:31:36.576Z,42.10
2018-03-29T03:34:04.418Z,41.73
2018-03-29T03:36:32.022Z,42.83
2018-03-29T03:38:59.581Z,41.73
2018-03-29T03:41:27.612Z,41.97
2018-03-29T03:43:56.331Z,39.67
2018-03-29T03:46:25.603Z,42.83
2018-03-29T03:48:54.492Z,44.53
2018-03-29T03:51:22.075Z,44.57
2018-03-29T03:53:49.639Z,40.37
2018-03-29T03:56:18.829Z,39.77
2018-03-29T03:58:46.388Z,41.30
2018-03-29T04:01:13.944Z,40.53
2018-03-29T04:03:41.530Z,39.43
2018-03-29T04:08:46.062Z,36.13
2018-03-29T04:11:14.068Z,40.47
2018-03-29T04:13:42.402Z,39.23
2018-03-29T04:16:11.178Z,42.43
2018-03-29T04:18:39.752Z,38.17
2018-03-29T04:21:07.428Z,37.93
2018-03-29T04:23:35.012Z,42.73
2018-03-29T04:26:02.670Z,36.97
2018-03-29T04:28:30.231Z,36.40
2018-03-29T04:30:57.813Z,37.83
2018-03-29T04:33:25.457Z,38.77
2018-03-29T04:35:53.012Z,38.40
2018-03-29T04:38:20.579Z,33.77
2018-03-29T04:40:48.139Z,37.37
2018-03-29T04:43:15.820Z,35.90
2018-03-29T04:45:43.385Z,34.57
2018-03-29T04:48:10.932Z,38.13
2018-03-29T04:50:38.589Z,36.13
2018-03-29T04:53:06.247Z,32.60
2018-03-29T04:55:34.490Z,34.57
2018-03-29T04:58:04.003Z,30.67
2018-03-29T05:00:31.594Z,32.20
2018-03-29T05:02:59.137Z,30.40
2018-03-29T05:05:26.708Z,31.97
2018-03-29T05:07:54.382Z,36.83
2018-03-29T05:10:22.137Z,31.97
2018-03-29T05:12:50.192Z,30.40
2018-03-29T05:15:17.775Z,33.83
2018-03-29T05:17:45.344Z,34.33
2018-03-29T05:20:14.165Z,33.10
2018-03-29T05:22:43.026Z,35.37
2018-03-29T05:25:10.594Z,30.33
2018-03-29T05:27:38.196Z,35.87
2018-03-29T05:30:05.809Z,32.60
2018-03-29T05:32:33.470Z,30.93
2018-03-29T05:35:01.138Z,31.67
2018-03-29T05:37:28.726Z,29.43
2018-03-29T05:39:57.080Z,31.20
2018-03-29T05:42:25.638Z,35.97
2018-03-29T05:44:54.482Z,32.53
2018-03-29T05:47:23.117Z,32.17
2018-03-29T05:49:52.314Z,34.23
2018-03-29T05:52:19.896Z,39.20
2018-03-29T05:54:47.468Z,33.47
2018-03-29T05:57:15.021Z,32.03
2018-03-29T05:59:44.084Z,29.00
2018-03-29T06:02:11.952Z,30.00
2018-03-29T06:04:39.548Z,37.70
2018-03-29T06:07:07.226Z,32.70
2018-03-29T06:09:35.864Z,30.33
2018-03-29T06:12:04.511Z,30.73
2018-03-29T06:14:38.682Z,31.70
2018-03-29T06:17:07.134Z,30.83
2018-03-29T06:19:34.735Z,30.20
2018-03-29T06:22:02.295Z,29.43
2018-03-29T06:24:29.861Z,28.90
2018-03-29T06:26:57.412Z,29.30
2018-03-29T06:29:25.012Z,29.77
2018-03-29T06:31:54.405Z,26.60
2018-03-29T06:34:21.974Z,26.23
2018-03-29T06:36:51.355Z,26.23
2018-03-29T06:39:18.906Z,25.70
2018-03-29T06:41:48.185Z,26.33
2018-03-29T06:44:17.139Z,25.60
2018-03-29T06:46:45.464Z,22.50
2018-03-29T06:49:13.032Z,26.90
2018-03-29T06:51:41.099Z,25.87
2018-03-29T06:54:08.668Z,24.57
2018-03-29T06:56:36.880Z,23.43
2018-03-29T06:59:05.240Z,28.57
2018-03-29T07:01:33.886Z,22.57
2018-03-29T07:04:01.452Z,27.73
2018-03-29T07:06:29.045Z,25.17
2018-03-29T07:08:57.753Z,26.47
2018-03-29T07:11:26.103Z,26.50
2018-03-29T07:13:53.786Z,27.80
2018-03-29T07:16:21.336Z,25.40
2018-03-29T07:18:49.070Z,26.17
2018-03-29T07:21:16.658Z,28.37
2018-03-29T07:23:44.329Z,26.90
2018-03-29T07:26:11.895Z,29.67
2018-03-29T07:28:39.474Z,27.13
2018-03-29T07:31:09.289Z,28.17
2018-03-29T07:33:37.608Z,24.80
2018-03-29T07:36:05.273Z,38.67
2018-03-29T07:38:32.817Z,28.63
2018-03-29T07:41:00.380Z,26.53
2018-03-29T07:43:27.977Z,24.80
2018-03-29T07:45:55.531Z,25.33
2018-03-29T07:48:23.102Z,24.70
2018-03-29T07:50:50.759Z,27.53
2018-03-29T07:53:19.587Z,24.53
2018-03-29T07:55:49.160Z,26.07
2018-03-29T07:58:16.746Z,29.43
2018-03-29T08:00:44.303Z,27.47
2018-03-29T08:03:12.117Z,24.13
2018-03-29T08:05:39.691Z,25.77
2018-03-29T08:08:07.260Z,24.80
2018-03-29T08:10:34.828Z,23.70
2018-03-29T08:13:02.398Z,25.07
2018-03-29T08:15:30.033Z,25.83
2018-03-29T08:17:57.582Z,23.77
2018-03-29T08:20:25.192Z,24.70
2018-03-29T08:22:52.743Z,25.10
2018-03-29T08:25:20.690Z,24.57
2018-03-29T08:27:48.272Z,24.67
2018-03-29T08:30:15.828Z,23.40
2018-03-29T08:32:43.395Z,23.73
2018-03-29T08:35:10.973Z,23.03
2018-03-29T08:37:38.616Z,21.37
2018-03-29T08:40:06.195Z,23.13
2018-03-29T08:42:33.760Z,25.07
2018-03-29T08:45:03.016Z,22.30
2018-03-29T08:47:30.610Z,23.80
2018-03-29T08:50:00.337Z,26.33
2018-03-29T08:52:27.891Z,20.07
2018-03-29T08:54:55.452Z,20.97
2018-03-29T08:57:23.020Z,20.77
2018-03-29T08:59:50.581Z,17.87
2018-03-29T09:02:19.651Z,22.03
2018-03-29T09:04:48.066Z,20.07
2018-03-29T09:07:17.391Z,20.27
2018-03-29T09:09:44.937Z,18.93
2018-03-29T09:12:13.284Z,18.30
2018-03-29T09:14:42.876Z,21.17
2018-03-29T09:17:10.566Z,18.47
2018-03-29T09:19:38.136Z,16.07
2018-03-29T09:22:05.713Z,17.93
2018-03-29T09:24:34.036Z,17.73
2018-03-29T09:27:01.617Z,18.10
2018-03-29T09:29:29.383Z,16.83
2018-03-29T09:31:57.048Z,20.20
2018-03-29T09:34:24.625Z,13.90
2018-03-29T09:36:52.183Z,14.13
2018-03-29T09:39:19.734Z,13.63
2018-03-29T09:41:47.386Z,10.13
2018-03-29T09:44:14.928Z,13.13
2018-03-29T09:46:42.779Z,11.70
2018-03-29T09:49:10.341Z,10.07
2018-03-29T09:51:37.892Z,13.10
2018-03-29T09:54:05.565Z,11.70
2018-03-29T09:56:33.133Z,11.63
2018-03-29T09:59:00.720Z,12.73
2018-03-29T10:01:28.266Z,13.57
2018-03-29T10:04:01.535Z,10.07
2018-03-29T10:06:29.092Z,11.60
2018-03-29T10:08:56.650Z,11.07
2018-03-29T10:11:24.214Z,10.27
2018-03-29T10:13:51.756Z,9.30
2018-03-29T10:16:20.101Z,11.30
2018-03-29T10:18:47.755Z,10.57
2018-03-29T10:21:15.300Z,9.83
2018-03-29T10:23:42.844Z,9.80
2018-03-29T10:26:10.455Z,8.53
2018-03-29T10:28:38.107Z,9.67
2018-03-29T10:31:05.659Z,8.37
2018-03-29T10:33:33.213Z,12.00
2018-03-29T10:36:00.766Z,14.67
2018-03-29T10:38:28.326Z,7.53
2018-03-29T10:40:55.896Z,8.20
2018-03-29T10:43:23.449Z,9.10
2018-03-29T10:45:51.030Z,8.07
2018-03-29T10:48:18.692Z,7.97
2018-03-29T10:50:46.250Z,12.37
2018-03-29T10:53:13.810Z,12.20
2018-03-29T10:55:41.471Z,11.37
2018-03-29T10:58:09.029Z,7.90
2018-03-29T11:00:38.000Z,6.63
2018-03-29T11:03:05.580Z,10.53
2018-03-29T11:05:34.075Z,9.73
2018-03-29T11:08:01.641Z,7.87
2018-03-29T11:10:30.512Z,6.03
2018-03-29T11:12:58.903Z,7.90
2018-03-29T11:15:26.472Z,11.77
2018-03-29T11:17:58.609Z,8.27
2018-03-29T11:20:26.984Z,6.33
2018-03-29T11:22:55.494Z,6.80
2018-03-29T11:25:23.167Z,6.23
2018-03-29T11:27:50.705Z,7.07
2018-03-29T11:30:18.293Z,5.47
2018-03-29T11:32:46.963Z,5.60
2018-03-29T11:35:14.529Z,6.83
2018-03-29T11:37:42.085Z,9.00
2018-03-29T11:40:09.759Z,10.27
2018-03-29T11:42:37.427Z,6.70
2018-03-29T11:45:04.978Z,7.80
2018-03-29T11:47:32.516Z,9.07
2018-03-29T11:50:00.071Z,6.43
2018-03-29T11:52:29.421Z,8.80
2018-03-29T11:54:57.015Z,6.43
2018-03-29T11:57:26.329Z,6.57
2018-03-29T11:59:53.875Z,7.50
2018-03-29T12:02:22.307Z,7.37
2018-03-29T12:04:49.869Z,6.13
2018-03-29T12:07:17.441Z,4.67
2018-03-29T12:09:45.018Z,6.90
2018-03-29T12:12:15.071Z,6.90
2018-03-29T12:14:42.628Z,7.00
2018-03-29T12:17:10.213Z,6.80
2018-03-29T12:19:38.595Z,8.73
2018-03-29T12:22:06.186Z,9.03
2018-03-29T12:24:33.745Z,8.50
2018-03-29T12:27:01.305Z,7.50
2018-03-29T12:29:28.964Z,5.50
2018-03-29T12:31:56.523Z,6.13
2018-03-29T12:34:24.973Z,6.13
2018-03-29T12:36:53.253Z,6.33
2018-03-29T12:39:20.818Z,7.17
2018-03-29T12:41:48.604Z,7.10
2018-03-29T12:44:16.180Z,9.17
2018-03-29T12:46:43.746Z,8.60
2018-03-29T12:49:11.405Z,8.20
2018-03-29T12:51:39.250Z,7.93
2018-03-29T12:54:06.821Z,10.37
2018-03-29T12:56:46.752Z,5.77
2018-03-29T12:59:14.345Z,8.53
2018-03-29T13:01:42.009Z,7.43
2018-03-29T13:04:09.562Z,5.93
2018-03-29T13:06:37.108Z,6.47
2018-03-29T13:09:04.658Z,9.13
2018-03-29T13:11:32.228Z,6.93
2018-03-29T13:14:00.976Z,5.17
2018-03-29T13:16:29.282Z,5.83
2018-03-29T13:18:56.838Z,6.63
2018-03-29T13:21:24.440Z,6.70
2018-03-29T13:23:51.984Z,7.23
2018-03-29T13:26:19.542Z,6.23
2018-03-29T13:28:47.210Z,6.33
2018-03-29T13:31:15.541Z,5.60
2018-03-29T13:33:43.098Z,5.33
2018-03-29T13:36:11.435Z,5.53
2018-03-29T13:38:39.006Z,7.50
2018-03-29T13:41:06.657Z,8.17
2018-03-29T13:43:34.255Z,4.43
2018-03-29T13:46:01.833Z,4.50
2018-03-29T13:48:30.169Z,6.77
2018-03-29T13:50:57.828Z,5.43
2018-03-29T13:53:25.484Z,5.77
2018-03-29T13:55:53.040Z,5.33
2018-03-29T13:58:20.627Z,5.60
2018-03-29T14:00:48.259Z,5.90
2018-03-29T14:03:16.630Z,5.30
2018-03-29T14:05:44.213Z,5.63
2018-03-29T14:08:11.769Z,4.17
2018-03-29T14:10:40.280Z,6.13
2018-03-29T14:13:08.608Z,6.17
2018-03-29T14:15:37.007Z,11.53
2018-03-29T14:18:05.093Z,7.33
2018-03-29T14:20:32.689Z,4.40
2018-03-29T14:23:01.016Z,3.67
2018-03-29T14:25:29.274Z,2.70
2018-03-29T14:27:56.841Z,4.43
2018-03-29T14:30:25.201Z,4.30
2018-03-29T14:32:52.759Z,2.07
2018-03-29T14:35:20.438Z,3.57
2018-03-29T14:37:48.004Z,2.70
2018-03-29T14:40:15.581Z,7.50
2018-03-29T14:42:43.157Z,3.27
2018-03-29T14:45:11.492Z,3.97
2018-03-29T14:47:39.093Z,5.23
2018-03-29T14:50:06.665Z,2.50
2018-03-29T14:52:34.817Z,3.57
2018-03-29T14:55:02.499Z,2.80
2018-03-29T14:57:30.073Z,2.60
2018-03-29T14:59:58.387Z,2.87
2018-03-29T15:02:26.077Z,2.80
2018-03-29T15:04:53.657Z,3.70
2018-03-29T15:07:21.227Z,3.60
2018-03-29T15:09:49.792Z,4.47
2018-03-29T15:12:17.351Z,4.13
2018-03-29T15:14:44.913Z,4.00
2018-03-29T15:17:12.473Z,3.13
2018-03-29T15:19:40.021Z,3.23
2018-03-29T15:22:07.596Z,3.50
2018-03-29T15:24:35.151Z,3.30
2018-03-29T15:27:03.958Z,3.20
2018-03-29T15:29:31.636Z,3.20
2018-03-29T15:31:59.990Z,1.67
2018-03-29T15:34:28.567Z,3.07
2018-03-29T15:36:56.153Z,2.80
2018-03-29T15:39:24.125Z,2.90
2018-03-29T15:41:51.742Z,2.93
2018-03-29T15:44:19.297Z,5.40
2018-03-29T15:46:46.890Z,3.13
2018-03-29T15:49:15.077Z,2.10
2018-03-29T15:51:42.678Z,4.27
2018-03-29T15:54:10.267Z,3.47
2018-03-29T15:56:37.937Z,3.00
2018-03-29T15:59:05.479Z,3.50
2018-03-29T16:01:33.048Z,2.90
2018-03-29T16:04:00.736Z,3.80
2018-03-29T16:06:28.295Z,4.03
2018-03-29T16:08:55.845Z,3.53
2018-03-29T16:11:23.410Z,5.60
2018-03-29T16:13:51.642Z,2.87
2018-03-29T16:16:19.197Z,3.53
2018-03-29T16:18:46.767Z,2.40
2018-03-29T16:21:14.314Z,2.67
2018-03-29T16:23:42.095Z,4.40
2018-03-29T16:26:09.687Z,5.57
2018-03-29T16:28:37.243Z,3.40
2018-03-29T16:31:04.886Z,5.37
2018-03-29T16:33:32.463Z,3.20
2018-03-29T16:36:00.146Z,3.67
2018-03-29T16:38:27.871Z,2.50
2018-03-29T16:40:55.449Z,3.87
2018-03-29T16:43:23.402Z,4.77
2018-03-29T16:45:51.061Z,4.43
2018-03-29T16:48:18.632Z,3.90
2018-03-29T16:50:46.178Z,6.77
2018-03-29T16:53:13.770Z,6.37
2018-03-29T16:55:41.436Z,7.03
2018-03-29T16:58:10.265Z,3.47
2018-03-29T17:00:38.590Z,3.30
2018-03-29T17:03:06.153Z,4.07
2018-03-29T17:05:34.698Z,4.17
2018-03-29T17:08:03.407Z,4.47
2018-03-29T17:10:30.984Z,5.43
2018-03-29T17:12:58.539Z,7.90
2018-03-29T17:15:26.105Z,7.00
2018-03-29T17:17:53.678Z,9.87
2018-03-29T17:20:21.251Z,6.90
2018-03-29T17:22:49.616Z,6.97
2018-03-29T17:25:17.193Z,6.43
2018-03-29T17:27:44.737Z,6.63
2018-03-29T17:30:12.290Z,10.20
2018-03-29T17:32:39.865Z,7.17
2018-03-29T17:35:07.509Z,5.70
2018-03-29T17:37:35.052Z,6.37
2018-03-29T17:40:02.657Z,9.70
2018-03-29T17:42:30.980Z,3.27
2018-03-29T17:44:58.651Z,4.30
2018-03-29T17:47:26.216Z,4.00
2018-03-29T17:49:53.873Z,5.40
2018-03-29T17:52:21.466Z,4.07
2018-03-29T17:54:49.128Z,4.50
2018-03-29T17:57:16.722Z,4.37
2018-03-29T17:59:45.604Z,5.97
2018-03-29T18:02:13.234Z,4.23
2018-03-29T18:04:40.799Z,6.13
2018-03-29T18:07:08.368Z,5.23
2018-03-29T18:09:35.965Z,3.40
2018-03-29T18:12:04.272Z,5.03
2018-03-29T18:14:31.826Z,7.13
2018-03-29T18:16:59.418Z,3.47
2018-03-29T18:19:26.978Z,6.77
2018-03-29T18:21:55.273Z,5.33
2018-03-29T18:24:22.831Z,4.90
2018-03-29T18:26:50.368Z,7.20
2018-03-29T18:29:19.464Z,3.20
2018-03-29T18:31:47.131Z,7.00
2018-03-29T18:34:14.697Z,4.90
2018-03-29T18:36:43.166Z,4.97
2018-03-29T18:39:10.739Z,4.53
2018-03-29T18:41:38.291Z,6.07
2018-03-29T18:44:05.867Z,4.60
2018-03-29T18:46:33.431Z,7.43
2018-03-29T18:49:01.484Z,5.03
2018-03-29T18:51:29.036Z,4.57
2018-03-29T18:53:56.618Z,5.03
2018-03-29T18:56:24.627Z,3.70
2018-03-29T18:58:53.121Z,4.50
2018-03-29T19:01:20.698Z,4.60
2018-03-29T19:03:49.721Z,4.60
2018-03-29T19:06:17.268Z,5.00
2018-03-29T19:08:44.910Z,5.47
2018-03-29T19:11:12.485Z,4.30
2018-03-29T19:13:40.055Z,4.33
2018-03-29T19:16:07.622Z,4.93
2018-03-29T19:18:36.227Z,5.73
2018-03-29T19:21:03.783Z,5.53
2018-03-29T19:23:31.351Z,6.37
2018-03-29T19:25:58.893Z,5.43
2018-03-29T19:28:26.449Z,4.63
2018-03-29T19:30:54.008Z,7.93
2018-03-29T19:33:21.565Z,5.17
2018-03-29T19:35:50.462Z,4.00
2018-03-29T19:38:18.045Z,5.03
2018-03-29T19:40:46.375Z,4.33
2018-03-29T19:43:13.952Z,6.03
2018-03-29T19:45:41.918Z,5.70
2018-03-29T19:48:09.486Z,6.47
2018-03-29T19:50:37.020Z,4.83
2018-03-29T19:53:04.904Z,3.70
2018-03-29T19:55:34.360Z,5.90
2018-03-29T19:58:02.685Z,5.90
2018-03-29T20:00:30.352Z,4.90
2018-03-29T20:02:57.890Z,5.17
2018-03-29T20:05:25.441Z,5.27
2018-03-29T20:07:53.035Z,7.27
2018-03-29T20:10:20.577Z,5.23
2018-03-29T20:12:48.845Z,3.97
2018-03-29T20:15:16.434Z,4.07
2018-03-29T20:17:43.988Z,3.80
2018-03-29T20:20:15.163Z,5.63
2018-03-29T20:22:44.766Z,5.00
2018-03-29T20:25:12.318Z,4.47
2018-03-29T20:27:39.875Z,6.37
2018-03-29T20:30:07.431Z,3.73
2018-03-29T20:32:34.970Z,5.10
2018-03-29T20:35:02.553Z,5.40
2018-03-29T20:37:30.113Z,6.00
2018-03-29T20:39:57.677Z,5.33
2018-03-29T20:42:25.535Z,5.77
2018-03-29T20:44:53.793Z,4.27
2018-03-29T20:47:23.147Z,4.30
2018-03-29T20:49:53.817Z,4.97
2018-03-29T20:52:22.229Z,5.27
2018-03-29T20:54:49.786Z,4.87
2018-03-29T20:57:18.812Z,4.47
2018-03-29T20:59:47.671Z,7.73
2018-03-29T21:02:28.926Z,4.37
2018-03-29T21:04:57.442Z,5.43
2018-03-29T21:07:24.995Z,6.40
2018-03-29T21:09:52.541Z,4.57
2018-03-29T21:12:20.096Z,5.23
2018-03-29T21:14:47.663Z,5.63
2018-03-29T21:17:15.246Z,6.63
2018-03-29T21:19:42.796Z,4.63
2018-03-29T21:22:11.107Z,5.03
2018-03-29T21:24:39.422Z,4.37
2018-03-29T21:27:07.973Z,5.50
2018-03-29T21:29:36.305Z,5.50
2018-03-29T21:32:05.303Z,3.87
2018-03-29T21:34:32.968Z,4.50
2018-03-29T21:37:02.050Z,4.43
2018-03-29T21:39:29.624Z,3.97
2018-03-29T21:41:57.532Z,6.53
2018-03-29T21:44:26.235Z,8.83
2018-03-29T21:46:53.894Z,3.47
2018-03-29T21:49:21.583Z,4.40
2018-03-29T21:51:49.256Z,7.00
2018-03-29T21:54:16.945Z,5.00
2018-03-29T21:56:44.491Z,4.57
2018-03-29T21:59:12.057Z,4.20
2018-03-29T22:01:39.610Z,4.67
2018-03-29T22:04:07.540Z,5.20
2018-03-29T22:06:37.334Z,5.33
2018-03-29T22:09:06.812Z,6.13
2018-03-29T22:11:34.374Z,5.90
2018-03-29T22:14:02.033Z,4.10
2018-03-29T22:16:29.586Z,5.03
2018-03-29T22:18:57.482Z,3.53
2018-03-29T22:21:25.045Z,8.43
2018-03-29T22:23:52.589Z,4.73
2018-03-29T22:26:20.249Z,3.87
2018-03-29T22:28:49.228Z,5.30
2018-03-29T22:31:16.767Z,5.03
2018-03-29T22:33:44.312Z,5.43
2018-03-29T22:36:13.571Z,4.63
2018-03-29T22:38:41.086Z,4.73
2018-03-29T22:41:08.697Z,4.80
2018-03-29T22:43:36.281Z,4.13
2018-03-29T22:46:04.592Z,4.87
2018-03-29T22:48:32.825Z,4.23
2018-03-29T22:51:00.457Z,5.73
2018-03-29T22:53:29.535Z,3.60
2018-03-29T22:55:57.120Z,5.67
2018-03-29T22:58:24.673Z,8.30
2018-03-29T23:00:52.229Z,3.80
2018-03-29T23:03:19.762Z,4.90
2018-03-29T23:05:47.360Z,4.60
2018-03-29T23:08:14.917Z,6.27
2018-03-29T23:10:42.445Z,3.50
2018-03-29T23:13:09.994Z,3.97
2018-03-29T23:15:39.798Z,4.33
2018-03-29T23:18:09.021Z,4.60
2018-03-29T23:20:36.629Z,4.23
2018-03-29T23:23:04.275Z,5.87
2018-03-29T23:25:31.825Z,4.57
2018-03-29T23:27:59.408Z,4.60
2018-03-29T23:30:27.616Z,3.53
2018-03-29T23:32:55.961Z,3.73
2018-03-29T23:35:23.529Z,6.90
2018-03-29T23:37:51.073Z,3.77
2018-03-29T23:40:18.631Z,3.77
2018-03-29T23:42:46.190Z,4.77
2018-03-29T23:45:13.745Z,4.00
2018-03-29T23:47:41.305Z,3.27
2018-03-29T23:50:08.874Z,3.37
2018-03-29T23:52:36.426Z,3.40
2018-03-29T23:55:03.976Z,4.20
2018-03-29T23:57:31.534Z,4.30
